»·PEaware :: AAL313 KSEA-KSFO

AAL313 :: KSEA-KSFO

FLIGHT INFORMATION

Flight Status: Arrived
Operator:
American Airlines
More flights by this operator :: More flights under this callsign
Pilot: Joseph K. (11517)
Aircraft: BOEING 737-800
(B738)
More flights by this aircraft type
Origin: KSEA Seattle-Tacoma Intl
United States
Destination: KSFO San Francisco Intl
United States
More flights between these airports :: More routes between these airports
Route: +HAROB6 ERAVE Q1 ETCHY MLBEC STLER2
File this flight plan on PilotEdge
Remarks:
Altitude:
(Current/Filed)
33,000ft
Speed:
(Current/Filed)
330kts
Departed: 08-Jan-18 07:42 PM
Arrived: 08-Jan-18 08:36 PM
Distance/Time
Traveled:
590nm/0:53
Distance/Time
To Go:
Arrived

Flight Plot

Page will automatically refresh every two minutes.

Flight plan parsing failed; only flown route is shown


Map Options




Map Legend


Flown Route
Filed Route
Departure Airport
Arrival Airport
Navaid (VOR, NDB)
Fix

Horizontal Profiles

Position Reports

Time Latitude Longitude Heading Altitude Ground
Speed
08-Jan-18 19:11 47.442236 -122.304281 119 383ft 0kts
08-Jan-18 19:12 47.442236 -122.304281 119 383ft 0kts
08-Jan-18 19:13 47.442236 -122.304281 119 383ft 0kts
08-Jan-18 19:14 47.442236 -122.304281 119 383ft 0kts
08-Jan-18 19:15 47.442236 -122.304281 119 383ft 0kts
08-Jan-18 19:16 47.442236 -122.304281 119 383ft 0kts
08-Jan-18 19:17 47.442236 -122.304281 119 383ft 0kts
08-Jan-18 19:18 47.442236 -122.304281 119 383ft 0kts
08-Jan-18 19:19 47.442236 -122.304281 119 383ft 0kts
08-Jan-18 19:20 47.442236 -122.304281 119 383ft 0kts
08-Jan-18 19:21 47.442236 -122.304281 119 383ft 0kts
08-Jan-18 19:22 47.442236 -122.304281 119 383ft 0kts
08-Jan-18 19:23 47.442236 -122.304281 119 383ft 0kts
08-Jan-18 19:24 47.442236 -122.304281 119 383ft 0kts
08-Jan-18 19:25 47.442236 -122.304281 119 383ft 0kts
08-Jan-18 19:26 47.442236 -122.304281 119 383ft 0kts
08-Jan-18 19:27 47.442214 -122.304251 141 383ft 2kts
08-Jan-18 19:28 47.442169 -122.304277 228 383ft 0kts
08-Jan-18 19:29 47.442169 -122.304277 228 383ft 0kts
08-Jan-18 19:30 47.442169 -122.304277 228 383ft 0kts
08-Jan-18 19:31 47.442169 -122.304277 228 383ft 0kts
08-Jan-18 19:32 47.442169 -122.304277 228 383ft 0kts
08-Jan-18 19:33 47.442169 -122.304277 228 383ft 0kts
08-Jan-18 19:34 47.442169 -122.304277 228 383ft 0kts
08-Jan-18 19:35 47.442169 -122.304277 228 383ft 0kts
08-Jan-18 19:36 47.442169 -122.304277 228 383ft 0kts
08-Jan-18 19:37 47.442169 -122.304277 228 383ft 0kts
08-Jan-18 19:38 47.442169 -122.304277 228 383ft 0kts
08-Jan-18 19:39 47.442169 -122.304277 228 383ft 0kts
08-Jan-18 19:40 47.442156 -122.304301 229 382ft 1kts
08-Jan-18 19:41 47.444011 -122.305416 1 387ft 10kts
08-Jan-18 19:42 47.446905 -122.305388 0 396ft 12kts
08-Jan-18 19:43 47.450527 -122.306271 1 413ft 13kts
08-Jan-18 19:44 47.455544 -122.306195 0 433ft 22kts
08-Jan-18 19:45 47.461946 -122.306135 0 427ft 20kts
08-Jan-18 19:46 47.463561 -122.306289 323 417ft 0kts
08-Jan-18 19:47 47.463293 -122.307711 183 411ft 13kts
08-Jan-18 19:48 47.427347 -122.308599 179 1635ft 183kts
08-Jan-18 19:49 47.366312 -122.309291 180 2994ft 266kts
08-Jan-18 19:50 47.316118 -122.371729 260 6300ft 278kts
08-Jan-18 19:51 47.308559 -122.486064 273 9484ft 290kts
08-Jan-18 19:52 47.311525 -122.610457 273 11851ft 327kts
08-Jan-18 19:53 47.315207 -122.745959 272 14789ft 340kts
08-Jan-18 19:54 47.287055 -122.879694 248 15228ft 345kts
08-Jan-18 19:55 47.250911 -123.012577 247 17514ft 356kts
08-Jan-18 19:56 47.177392 -123.112935 216 20493ft 376kts
08-Jan-18 19:57 47.091605 -123.205156 216 23331ft 392kts
08-Jan-18 19:58 47.002268 -123.301649 216 25931ft 408kts
08-Jan-18 19:59 46.908194 -123.391144 195 28765ft 405kts
08-Jan-18 20:00 46.798389 -123.397737 178 31237ft 401kts
08-Jan-18 20:01 46.687529 -123.394827 178 32991ft 407kts
08-Jan-18 20:02 46.568333 -123.391269 178 33013ft 453kts
08-Jan-18 20:03 46.437251 -123.387325 178 33003ft 485kts
08-Jan-18 20:04 46.303037 -123.383274 178 33001ft 484kts
08-Jan-18 20:05 46.182913 -123.379547 184 32779ft 401kts
08-Jan-18 20:06 46.069552 -123.376308 184 32785ft 411kts
08-Jan-18 20:07 45.955407 -123.372867 184 32780ft 410kts
08-Jan-18 20:08 45.843184 -123.369485 184 32792ft 411kts
08-Jan-18 20:09 45.729517 -123.366062 184 32780ft 411kts
08-Jan-18 20:10 45.615687 -123.362618 184 32779ft 411kts
08-Jan-18 20:11 45.501541 -123.359157 184 32781ft 411kts
08-Jan-18 20:12 45.387492 -123.355729 184 32773ft 411kts
08-Jan-18 20:13 45.273555 -123.352290 184 32773ft 411kts
08-Jan-18 20:14 45.159368 -123.348850 184 32771ft 410kts
08-Jan-18 20:15 45.044966 -123.345406 184 32770ft 417kts
08-Jan-18 20:16 44.927813 -123.341864 183 32770ft 424kts
08-Jan-18 20:17 44.812085 -123.338356 183 32781ft 423kts
08-Jan-18 20:18 44.694565 -123.334806 183 32779ft 424kts
08-Jan-18 20:19 44.577227 -123.331265 183 32779ft 423kts
08-Jan-18 20:20 44.459778 -123.327380 183 32777ft 424kts
08-Jan-18 20:21 44.341891 -123.322703 183 32774ft 424kts
08-Jan-18 20:22 44.229655 -123.318326 183 32764ft 424kts
08-Jan-18 20:23 44.111894 -123.313741 183 32754ft 424kts
08-Jan-18 20:24 43.994538 -123.309172 183 32753ft 423kts
08-Jan-18 20:25 43.878516 -123.304656 183 32764ft 424kts
08-Jan-18 20:26 43.761870 -123.300113 183 32760ft 424kts
08-Jan-18 20:27 43.644482 -123.295543 183 32755ft 424kts
08-Jan-18 20:28 43.526949 -123.290967 183 32751ft 424kts
08-Jan-18 20:29 43.409639 -123.286397 183 32749ft 424kts
08-Jan-18 20:30 43.291891 -123.281810 183 32747ft 424kts
08-Jan-18 20:31 43.174382 -123.277233 183 32746ft 424kts
08-Jan-18 20:32 43.056886 -123.272660 183 32745ft 424kts
08-Jan-18 20:33 42.939336 -123.268103 182 32743ft 423kts
08-Jan-18 20:34 42.824979 -123.263638 182 32756ft 423kts
08-Jan-18 20:35 42.707856 -123.259066 182 32754ft 423kts
08-Jan-18 20:36 42.590605 -123.254498 182 32752ft 423kts
08-Jan-18 20:37 42.473318 -123.249933 182 32751ft 422kts
08-Jan-18 20:42 37.613197 -122.383124 261 31ft 0kts
08-Jan-18 20:43 37.613197 -122.383124 261 31ft 0kts
08-Jan-18 20:44 37.613197 -122.383124 261 31ft 0kts
08-Jan-18 20:45 37.613197 -122.383124 261 31ft 0kts
08-Jan-18 20:46 37.613197 -122.383124 261 31ft 0kts
08-Jan-18 20:47 37.613197 -122.383124 261 31ft 0kts
08-Jan-18 20:48 37.613197 -122.383124 261 31ft 0kts
08-Jan-18 20:49 37.613197 -122.383124 261 31ft 0kts
08-Jan-18 20:50 37.613197 -122.383124 261 31ft 0kts
08-Jan-18 20:51 37.613197 -122.383124 261 31ft 0kts
08-Jan-18 20:52 37.613197 -122.383124 261 31ft 0kts
08-Jan-18 20:53 37.613197 -122.383124 261 31ft 0kts

Navigation Log

Ident Type
Flight plan parsing failed, navigation log unavailable